Time;durP1;ratioP1;P1;durP2;ratioP2;P2;SDS_P1;SDS_P2;PMS_P1;PMS_P2;Temp;Humidity;BMP_temperature;BMP_pressure;BME280_temperature;BME280_humidity;BME280_pressure;Samples;Min_cycle;Max_cycle;Signal;HPM_P1;HPM_P2
2024/01/31 00:00:15;;;;;;;29.87;16.07;;;5.00;87.90;;;;;;4886918;29;20255;-68
2024/01/31 00:02:43;;;;;;;26.87;15.50;;;5.00;87.90;;;;;;4887701;29;20222;-68
2024/01/31 00:05:13;;;;;;;31.00;16.60;;;5.00;87.90;;;;;;4884513;29;20226;-69
2024/01/31 00:07:44;;;;;;;31.50;16.03;;;5.00;88.30;;;;;;4879721;29;20319;-69
2024/01/31 00:10:12;;;;;;;24.93;15.07;;;5.00;88.60;;;;;;4869719;29;20222;-68
2024/01/31 00:12:41;;;;;;;29.90;15.33;;;5.10;87.90;;;;;;4883780;29;20248;-68
2024/01/31 00:15:10;;;;;;;28.33;15.17;;;5.10;88.00;;;;;;4883564;29;20294;-68
2024/01/31 00:17:39;;;;;;;31.93;15.63;;;5.10;88.00;;;;;;4880936;29;20313;-67
2024/01/31 00:20:08;;;;;;;27.20;15.60;;;5.10;88.00;;;;;;4886269;29;20254;-68
2024/01/31 00:22:37;;;;;;;29.27;16.37;;;5.10;88.80;;;;;;4880110;29;20250;-68
2024/01/31 00:25:10;;;;;;;27.27;15.53;;;5.10;88.00;;;;;;4866501;29;20329;-68
2024/01/31 00:27:41;;;;;;;28.37;15.30;;;5.00;88.00;;;;;;4879782;29;20244;-69
2024/01/31 00:30:16;;;;;;;27.73;15.27;;;5.00;87.90;;;;;;4884833;29;20823;-68
2024/01/31 00:32:45;;;;;;;26.83;15.33;;;4.90;87.80;;;;;;4868501;29;20952;-69
2024/01/31 00:35:14;;;;;;;27.13;15.27;;;4.90;87.90;;;;;;4888618;29;20282;-68
2024/01/31 00:37:43;;;;;;;27.13;15.43;;;4.80;88.00;;;;;;4884018;29;20281;-68
2024/01/31 00:40:14;;;;;;;26.53;15.47;;;4.90;88.30;;;;;;4885968;29;20326;-68
2024/01/31 00:42:42;;;;;;;26.60;15.23;;;4.80;87.80;;;;;;4880792;29;20295;-67
2024/01/31 00:45:13;;;;;;;26.53;15.07;;;4.90;87.80;;;;;;4883662;29;20218;-68
2024/01/31 00:47:43;;;;;;;28.80;15.10;;;4.80;87.90;;;;;;4883877;29;20340;-68
2024/01/31 00:50:12;;;;;;;26.00;14.27;;;4.70;87.80;;;;;;4868446;29;20596;-67
2024/01/31 00:52:41;;;;;;;27.07;15.37;;;4.70;88.40;;;;;;4889557;29;20234;-68
2024/01/31 00:55:10;;;;;;;32.73;15.13;;;4.80;88.10;;;;;;4883792;29;20273;-68
2024/01/31 00:57:40;;;;;;;25.77;15.27;;;4.80;87.90;;;;;;4886085;29;20237;-68
2024/01/31 01:00:11;;;;;;;24.87;15.30;;;4.60;87.80;;;;;;4868466;29;20258;-67
2024/01/31 01:02:41;;;;;;;27.30;15.37;;;4.60;87.70;;;;;;4881549;29;20252;-67
2024/01/31 01:05:09;;;;;;;26.37;14.00;;;4.60;87.70;;;;;;4897976;29;20234;-68
2024/01/31 01:07:40;;;;;;;25.43;15.00;;;4.60;87.70;;;;;;4881547;29;20238;-68
2024/01/31 01:10:12;;;;;;;27.43;14.60;;;4.60;87.60;;;;;;4869389;29;20305;-67
2024/01/31 01:12:43;;;;;;;27.23;14.37;;;4.70;87.90;;;;;;4863032;29;20226;-67
2024/01/31 01:15:12;;;;;;;26.87;14.03;;;4.70;87.70;;;;;;4898407;29;20725;-67
2024/01/31 01:17:44;;;;;;;24.53;14.80;;;4.70;87.90;;;;;;4879131;29;20235;-67
2024/01/31 01:20:13;;;;;;;27.20;14.77;;;4.70;87.70;;;;;;4885865;29;20234;-67
2024/01/31 01:22:44;;;;;;;28.27;14.67;;;4.70;87.70;;;;;;4880618;29;20235;-67
2024/01/31 01:25:13;;;;;;;28.30;15.33;;;4.70;88.10;;;;;;4882787;29;20246;-67
2024/01/31 01:27:50;;;;;;;24.33;14.53;;;4.60;87.70;;;;;;4884259;29;20302;-66
2024/01/31 01:30:20;;;;;;;26.63;14.53;;;4.60;87.80;;;;;;4877357;29;20288;-67
2024/01/31 01:32:48;;;;;;;25.43;13.57;;;4.70;87.90;;;;;;4869400;29;20233;-69
2024/01/31 01:35:17;;;;;;;25.00;13.77;;;4.70;88.00;;;;;;4875454;29;20223;-68
2024/01/31 01:37:48;;;;;;;23.33;13.97;;;4.80;88.80;;;;;;4883230;29;20374;-68
2024/01/31 01:40:17;;;;;;;27.10;14.60;;;4.70;87.70;;;;;;4875711;29;20227;-68
2024/01/31 01:42:48;;;;;;;26.60;14.87;;;4.70;88.30;;;;;;4865614;29;20298;-67
2024/01/31 01:45:17;;;;;;;24.40;13.07;;;4.70;87.80;;;;;;4866862;29;20479;-67
2024/01/31 01:47:50;;;;;;;23.23;13.73;;;4.60;87.60;;;;;;4871067;29;20222;-68
2024/01/31 01:50:19;;;;;;;26.03;14.23;;;4.60;87.80;;;;;;4884963;29;20226;-68
2024/01/31 01:52:48;;;;;;;28.03;14.27;;;4.60;87.80;;;;;;4882081;29;20249;-68
2024/01/31 01:55:17;;;;;;;23.93;13.40;;;4.50;87.60;;;;;;4880907;29;20237;-68
2024/01/31 01:57:49;;;;;;;24.30;14.40;;;4.50;87.50;;;;;;4885757;29;20734;-68
2024/01/31 02:00:18;;;;;;;26.23;14.20;;;4.50;87.80;;;;;;4882724;29;20789;-67
2024/01/31 02:02:48;;;;;;;26.57;13.43;;;4.60;87.80;;;;;;4881588;29;20782;-67
2024/01/31 02:05:20;;;;;;;24.80;13.40;;;4.50;88.40;;;;;;4878936;29;20275;-67
2024/01/31 02:07:49;;;;;;;22.70;13.23;;;4.60;88.20;;;;;;4885612;29;20222;-69
2024/01/31 02:10:17;;;;;;;24.87;13.47;;;4.60;87.80;;;;;;4884156;29;20230;-68
2024/01/31 02:12:50;;;;;;;24.73;14.23;;;4.60;88.50;;;;;;4882717;29;20236;-67
2024/01/31 02:15:19;;;;;;;22.63;13.37;;;4.60;87.80;;;;;;4878993;29;20780;-68
2024/01/31 02:17:47;;;;;;;24.90;13.77;;;4.50;87.60;;;;;;4868544;29;20322;-68
2024/01/31 02:20:16;;;;;;;22.43;13.33;;;4.50;87.60;;;;;;4878271;29;20234;-67
2024/01/31 02:22:48;;;;;;;26.73;14.13;;;4.50;87.60;;;;;;4885497;29;20232;-68
2024/01/31 02:25:16;;;;;;;26.07;14.63;;;4.50;87.70;;;;;;4869575;29;20709;-68
2024/01/31 02:27:45;;;;;;;23.43;13.70;;;4.40;87.50;;;;;;4878816;29;20273;-69
2024/01/31 02:30:15;;;;;;;28.20;14.03;;;4.40;88.10;;;;;;4883386;29;20241;-67
2024/01/31 02:32:44;;;;;;;21.20;12.67;;;4.50;87.70;;;;;;4882118;29;20223;-68
2024/01/31 02:35:13;;;;;;;22.97;13.27;;;4.40;87.50;;;;;;4883974;29;20242;-68
2024/01/31 02:37:46;;;;;;;23.87;13.77;;;4.30;87.70;;;;;;4883994;29;20262;-68
2024/01/31 02:40:15;;;;;;;23.50;13.83;;;4.30;87.50;;;;;;4890889;29;20222;-68
2024/01/31 02:42:44;;;;;;;27.33;13.73;;;4.40;87.60;;;;;;4867714;29;20252;-67
2024/01/31 02:45:13;;;;;;;24.27;14.30;;;4.40;87.50;;;;;;4863008;29;20230;-68
2024/01/31 02:47:42;;;;;;;24.20;13.97;;;4.40;88.10;;;;;;4886677;29;20281;-69
2024/01/31 02:50:13;;;;;;;21.57;13.30;;;4.40;87.70;;;;;;4881475;29;20234;-70
2024/01/31 02:52:42;;;;;;;24.17;13.90;;;4.40;87.60;;;;;;4886815;29;20230;-69
2024/01/31 02:55:11;;;;;;;23.27;13.90;;;4.30;87.60;;;;;;4884656;29;20325;-69
2024/01/31 02:57:40;;;;;;;23.23;13.33;;;4.30;87.50;;;;;;4887470;29;20238;-70
2024/01/31 03:00:11;;;;;;;22.53;13.53;;;4.20;88.00;;;;;;4884462;29;20254;-69
2024/01/31 03:02:43;;;;;;;23.53;13.23;;;4.20;87.40;;;;;;4888165;29;20238;-69
2024/01/31 03:05:13;;;;;;;23.13;13.60;;;4.20;87.50;;;;;;4886390;29;20286;-68
2024/01/31 03:07:42;;;;;;;23.90;13.57;;;4.20;87.50;;;;;;4880625;29;20231;-68
2024/01/31 03:10:12;;;;;;;22.40;13.80;;;4.30;88.10;;;;;;4886607;29;20230;-67
2024/01/31 03:12:41;;;;;;;25.23;13.90;;;4.30;94.70;;;;;;4880246;29;20764;-69
2024/01/31 03:15:10;;;;;;;24.03;13.50;;;4.20;87.60;;;;;;4885138;29;20230;-68
2024/01/31 03:17:38;;;;;;;23.30;13.27;;;4.30;87.50;;;;;;4862201;29;20226;-68
2024/01/31 03:20:08;;;;;;;24.00;13.50;;;4.30;87.50;;;;;;4886066;29;20234;-68
2024/01/31 03:22:40;;;;;;;23.80;13.23;;;4.30;87.80;;;;;;4869033;29;20740;-68
2024/01/31 03:25:09;;;;;;;25.63;13.57;;;4.30;87.60;;;;;;4884948;29;20245;-68
2024/01/31 03:27:39;;;;;;;22.90;14.07;;;4.30;87.60;;;;;;4887898;29;20222;-67
2024/01/31 03:30:08;;;;;;;23.87;13.57;;;4.30;87.40;;;;;;4883358;29;20338;-68
2024/01/31 03:32:40;;;;;;;21.27;13.43;;;4.30;87.60;;;;;;4887417;29;20547;-66
2024/01/31 03:35:10;;;;;;;24.10;13.60;;;4.40;87.60;;;;;;4869965;29;20229;-68
2024/01/31 03:37:42;;;;;;;26.37;14.70;;;4.30;87.40;;;;;;4868249;29;20235;-67
2024/01/31 03:40:11;;;;;;;24.53;13.97;;;4.30;87.50;;;;;;4884246;29;20286;-67
2024/01/31 03:42:41;;;;;;;22.77;13.13;;;4.40;87.60;;;;;;4885280;29;21060;-68
2024/01/31 03:45:10;;;;;;;22.53;13.37;;;4.30;89.30;;;;;;4855417;29;20233;-69
2024/01/31 03:47:38;;;;;;;23.40;13.93;;;4.30;88.10;;;;;;4871299;29;20230;-67
2024/01/31 03:50:09;;;;;;;21.83;13.57;;;4.40;87.50;;;;;;4865458;29;20327;-68
2024/01/31 03:52:38;;;;;;;22.07;13.87;;;4.60;87.50;;;;;;4865913;29;20261;-67
2024/01/31 03:55:07;;;;;;;21.17;13.53;;;4.50;87.30;;;;;;4882731;29;20221;-68
2024/01/31 03:57:37;;;;;;;22.50;14.00;;;4.50;87.40;;;;;;4867211;29;20228;-68
2024/01/31 04:00:09;;;;;;;23.40;13.80;;;4.50;88.10;;;;;;4886687;29;20226;-68
2024/01/31 04:02:39;;;;;;;22.07;13.30;;;4.50;87.50;;;;;;4884720;29;20226;-68
2024/01/31 04:05:10;;;;;;;22.33;12.80;;;4.40;87.30;;;;;;4878470;29;20226;-68
2024/01/31 04:07:40;;;;;;;23.53;14.73;;;4.50;87.80;;;;;;4870856;29;20238;-68
2024/01/31 04:10:14;;;;;;;23.23;14.37;;;4.50;87.50;;;;;;4879554;29;20806;-68
2024/01/31 04:12:43;;;;;;;23.27;14.67;;;4.50;87.10;;;;;;4887222;29;20979;-68
2024/01/31 04:15:13;;;;;;;27.43;14.07;;;4.50;88.30;;;;;;4882918;29;20818;-69
2024/01/31 04:17:42;;;;;;;21.03;13.77;;;4.50;87.20;;;;;;4882334;29;20232;-69
2024/01/31 04:20:12;;;;;;;26.90;14.50;;;4.60;87.40;;;;;;4861777;29;20783;-69
2024/01/31 04:22:41;;;;;;;23.67;14.73;;;4.60;86.40;;;;;;4871377;29;20815;-69
2024/01/31 04:25:09;;;;;;;22.60;14.70;;;4.60;85.70;;;;;;4885223;29;20257;-68
2024/01/31 04:27:38;;;;;;;24.13;14.67;;;4.70;85.70;;;;;;4881993;29;20219;-67
2024/01/31 04:30:12;;;;;;;25.53;14.20;;;4.60;86.50;;;;;;4868568;29;20222;-68
2024/01/31 04:32:41;;;;;;;24.83;15.27;;;4.60;86.10;;;;;;4869188;29;20221;-68
2024/01/31 04:35:09;;;;;;;26.70;15.47;;;4.70;87.00;;;;;;4885442;29;20253;-68
2024/01/31 04:37:39;;;;;;;23.00;13.47;;;4.70;85.10;;;;;;4885646;29;20257;-68
2024/01/31 04:40:09;;;;;;;36.63;14.50;;;4.60;85.60;;;;;;4864131;29;20234;-69
2024/01/31 04:42:38;;;;;;;21.10;13.77;;;4.60;85.50;;;;;;4860697;29;20238;-69
2024/01/31 04:45:09;;;;;;;25.90;15.07;;;4.70;85.10;;;;;;4886299;29;20227;-69
2024/01/31 04:47:42;;;;;;;23.03;14.17;;;4.60;86.00;;;;;;4880516;29;20316;-68
2024/01/31 04:50:11;;;;;;;25.03;15.30;;;4.60;85.60;;;;;;4884086;29;20369;-69
2024/01/31 04:52:40;;;;;;;22.73;14.73;;;4.60;85.90;;;;;;4882200;29;20718;-68
2024/01/31 04:55:10;;;;;;;25.00;15.37;;;4.50;85.30;;;;;;4883097;29;20230;-67
2024/01/31 04:57:40;;;;;;;23.43;14.83;;;4.60;85.30;;;;;;4881617;29;20238;-68
2024/01/31 05:00:15;;;;;;;28.37;15.20;;;4.70;85.10;;;;;;4866428;29;20257;-69
2024/01/31 05:02:44;;;;;;;25.53;15.67;;;4.80;83.80;;;;;;4867759;29;20221;-69
2024/01/31 05:05:13;;;;;;;23.00;15.60;;;4.70;84.50;;;;;;4881902;29;20228;-69
2024/01/31 05:07:42;;;;;;;23.33;15.00;;;4.80;83.50;;;;;;4882260;29;20223;-69
2024/01/31 05:10:11;;;;;;;24.13;15.70;;;4.80;83.50;;;;;;4882374;29;20249;-70
2024/01/31 05:12:40;;;;;;;26.77;16.33;;;4.90;82.60;;;;;;4859020;29;20242;-69
2024/01/31 05:15:09;;;;;;;24.13;14.80;;;4.90;82.90;;;;;;4882586;29;20238;-69
2024/01/31 05:17:39;;;;;;;29.67;16.17;;;5.00;82.30;;;;;;4885491;29;20704;-70
2024/01/31 05:20:11;;;;;;;24.10;15.87;;;5.00;82.20;;;;;;4885857;29;20989;-70
2024/01/31 05:22:41;;;;;;;24.73;16.40;;;5.00;82.10;;;;;;4871706;29;20689;-70
2024/01/31 05:25:10;;;;;;;27.17;16.53;;;5.10;81.70;;;;;;4869910;29;20245;-70
2024/01/31 05:27:38;;;;;;;24.47;15.57;;;5.10;81.50;;;;;;4884554;29;20237;-69
2024/01/31 05:30:08;;;;;;;28.53;16.40;;;5.20;82.50;;;;;;4884173;29;20230;-69
2024/01/31 05:32:37;;;;;;;22.73;15.23;;;5.20;80.60;;;;;;4883249;29;20223;-69
2024/01/31 05:35:07;;;;;;;26.87;15.67;;;5.20;81.20;;;;;;4883318;29;20326;-69
2024/01/31 05:37:37;;;;;;;24.73;15.37;;;5.30;80.70;;;;;;4878100;29;20218;-69
2024/01/31 05:40:09;;;;;;;32.30;17.07;;;5.40;80.20;;;;;;4870340;29;20275;-70
2024/01/31 05:42:37;;;;;;;25.87;16.37;;;5.40;80.80;;;;;;4880695;29;20226;-69
2024/01/31 05:45:07;;;;;;;26.63;15.90;;;5.40;80.40;;;;;;4880952;29;20242;-70
2024/01/31 05:47:35;;;;;;;31.70;17.40;;;5.40;80.00;;;;;;4875726;29;20318;-69
2024/01/31 05:50:04;;;;;;;27.17;16.43;;;5.50;79.60;;;;;;4883686;29;20226;-68
2024/01/31 05:52:35;;;;;;;27.97;17.03;;;5.50;79.10;;;;;;4879196;29;20238;-68
2024/01/31 05:55:05;;;;;;;32.33;17.47;;;5.60;79.10;;;;;;4887904;29;20265;-68
2024/01/31 05:57:35;;;;;;;30.47;17.43;;;5.60;78.90;;;;;;4850612;29;20226;-68
2024/01/31 06:00:07;;;;;;;29.67;17.37;;;5.60;78.90;;;;;;4885377;29;20226;-68
2024/01/31 06:02:40;;;;;;;31.07;17.40;;;5.60;78.70;;;;;;4896385;29;20231;-67
2024/01/31 06:05:09;;;;;;;28.93;18.07;;;5.60;78.70;;;;;;4880387;29;20268;-68
2024/01/31 06:07:38;;;;;;;31.70;18.07;;;5.70;79.20;;;;;;4869947;29;20250;-69
2024/01/31 06:10:09;;;;;;;31.70;18.40;;;5.80;79.70;;;;;;4882553;29;20273;-69
2024/01/31 06:12:38;;;;;;;31.87;17.83;;;5.80;78.00;;;;;;4887530;29;20559;-67
2024/01/31 06:15:07;;;;;;;33.53;18.67;;;5.80;77.70;;;;;;4902426;29;20345;-68
2024/01/31 06:17:41;;;;;;;32.30;19.07;;;5.80;77.50;;;;;;4885047;29;20229;-67
2024/01/31 06:20:12;;;;;;;34.03;18.37;;;5.90;77.10;;;;;;4886851;29;20230;-68
2024/01/31 06:22:40;;;;;;;29.47;18.63;;;6.00;77.00;;;;;;4880920;29;20243;-68
2024/01/31 06:25:13;;;;;;;33.43;19.30;;;6.00;77.30;;;;;;4884554;29;20319;-68
2024/01/31 06:27:41;;;;;;;33.53;19.50;;;6.00;77.20;;;;;;4888689;29;20234;-69
2024/01/31 06:30:19;;;;;;;34.53;18.87;;;6.10;77.20;;;;;;4889955;29;20228;-68
2024/01/31 06:32:48;;;;;;;34.07;19.70;;;6.10;76.70;;;;;;4887901;29;20341;-69
2024/01/31 06:35:17;;;;;;;39.90;19.33;;;6.10;76.70;;;;;;4878810;29;20249;-69
2024/01/31 06:37:46;;;;;;;36.77;20.43;;;6.10;75.80;;;;;;4882801;29;20230;-68
2024/01/31 06:40:17;;;;;;;37.67;20.30;;;6.10;75.90;;;;;;4862706;29;21203;-68
2024/01/31 06:42:49;;;;;;;37.33;19.10;;;6.20;76.00;;;;;;4878781;29;20238;-69
2024/01/31 06:45:18;;;;;;;39.47;20.03;;;6.20;76.60;;;;;;4881141;29;20238;-69
2024/01/31 06:47:46;;;;;;;38.93;21.10;;;6.20;75.50;;;;;;4883957;29;20230;-71
2024/01/31 06:50:18;;;;;;;36.93;20.40;;;6.20;75.90;;;;;;4884595;29;20223;-72
2024/01/31 06:52:50;;;;;;;39.63;19.80;;;6.20;75.90;;;;;;4865442;29;20266;-68
2024/01/31 06:55:19;;;;;;;41.23;19.90;;;6.20;75.60;;;;;;4884812;29;20230;-68
2024/01/31 06:57:48;;;;;;;41.13;21.20;;;6.10;75.70;;;;;;4887012;29;20261;-68
2024/01/31 07:00:17;;;;;;;38.83;20.93;;;6.10;76.80;;;;;;4870152;29;20275;-68
2024/01/31 07:02:46;;;;;;;36.33;20.90;;;6.10;78.00;;;;;;4887633;29;20310;-70
2024/01/31 07:05:14;;;;;;;38.23;20.67;;;6.20;75.50;;;;;;4885585;29;20258;-68
2024/01/31 07:07:43;;;;;;;42.90;21.63;;;6.20;74.90;;;;;;4888233;29;20760;-69
2024/01/31 07:10:12;;;;;;;37.53;19.93;;;6.20;75.10;;;;;;4883639;29;20230;-69
2024/01/31 07:12:43;;;;;;;44.33;20.97;;;6.30;74.60;;;;;;4887353;29;20219;-67
2024/01/31 07:15:14;;;;;;;46.97;20.90;;;6.30;73.90;;;;;;4881877;29;20222;-68
2024/01/31 07:17:46;;;;;;;40.87;21.40;;;6.40;73.80;;;;;;4888641;29;20230;-68
2024/01/31 07:20:15;;;;;;;38.63;21.87;;;6.40;73.90;;;;;;4883140;29;20241;-67
2024/01/31 07:22:44;;;;;;;35.33;20.43;;;6.40;74.00;;;;;;4885809;29;20233;-68
2024/01/31 07:25:16;;;;;;;40.83;20.77;;;6.40;73.60;;;;;;4886032;29;20225;-68
2024/01/31 07:27:50;;;;;;;36.13;20.53;;;6.50;73.00;;;;;;4886977;29;20245;-67
2024/01/31 07:30:18;;;;;;;35.70;20.07;;;6.50;73.10;;;;;;4883334;29;20253;-68
2024/01/31 07:32:48;;;;;;;38.33;20.63;;;6.50;71.90;;;;;;4887214;29;20226;-67
2024/01/31 07:35:17;;;;;;;34.20;19.90;;;6.60;71.60;;;;;;4887419;29;20883;-68
2024/01/31 07:37:46;;;;;;;38.07;21.03;;;6.60;71.50;;;;;;4887232;29;20228;-67
2024/01/31 07:40:15;;;;;;;38.73;20.60;;;6.60;72.40;;;;;;4886929;29;20322;-68
2024/01/31 07:42:43;;;;;;;34.33;19.80;;;6.60;71.20;;;;;;4882614;29;20231;-68
2024/01/31 07:45:14;;;;;;;36.10;20.63;;;6.70;70.80;;;;;;4864943;29;20686;-69
2024/01/31 07:47:43;;;;;;;33.97;21.17;;;6.70;70.80;;;;;;4852129;29;20600;-68
2024/01/31 07:50:15;;;;;;;34.53;20.63;;;6.60;71.00;;;;;;4886199;29;20731;-68
2024/01/31 07:52:43;;;;;;;34.87;20.30;;;6.70;70.50;;;;;;4888012;29;20301;-67
2024/01/31 07:55:13;;;;;;;36.57;20.93;;;6.80;71.00;;;;;;4885319;29;20585;-69
2024/01/31 07:57:41;;;;;;;36.40;20.03;;;6.80;70.90;;;;;;4881832;29;20547;-67
2024/01/31 08:00:12;;;;;;;32.90;20.33;;;6.80;70.30;;;;;;4889943;29;20233;-68
2024/01/31 08:02:42;;;;;;;31.90;21.43;;;6.80;70.00;;;;;;4863446;29;20750;-67
2024/01/31 08:05:10;;;;;;;30.90;20.07;;;7.00;68.80;;;;;;4871834;29;20805;-67
2024/01/31 08:07:41;;;;;;;36.13;20.80;;;7.00;68.70;;;;;;4881900;29;20229;-67
2024/01/31 08:10:12;;;;;;;35.87;19.93;;;7.00;69.30;;;;;;4886975;29;20237;-69
2024/01/31 08:12:42;;;;;;;35.93;19.73;;;7.10;68.40;;;;;;4882363;29;20238;-71
2024/01/31 08:15:11;;;;;;;34.50;21.03;;;7.10;68.20;;;;;;4885098;29;20337;-69
2024/01/31 08:17:41;;;;;;;38.83;20.67;;;7.10;67.80;;;;;;4885767;29;20223;-71
2024/01/31 08:20:10;;;;;;;35.50;21.07;;;7.10;68.30;;;;;;4883616;29;20738;-69
2024/01/31 08:22:39;;;;;;;34.37;21.10;;;7.20;68.40;;;;;;4885759;29;20249;-69
2024/01/31 08:25:09;;;;;;;33.80;20.80;;;7.20;68.70;;;;;;4864228;29;20596;-67
2024/01/31 08:27:38;;;;;;;32.13;20.23;;;7.30;69.60;;;;;;4884605;29;20265;-67
2024/01/31 08:30:07;;;;;;;31.03;19.57;;;7.20;81.00;;;;;;4875192;29;20252;-68
2024/01/31 08:32:37;;;;;;;34.20;21.03;;;7.20;67.80;;;;;;4881284;29;20790;-68
2024/01/31 08:35:08;;;;;;;33.07;20.40;;;7.20;67.70;;;;;;4882948;29;20234;-68
2024/01/31 08:37:36;;;;;;;32.90;20.83;;;7.30;68.80;;;;;;4864296;29;20290;-68
2024/01/31 08:40:06;;;;;;;36.00;20.93;;;7.20;67.40;;;;;;4876493;29;20233;-70
2024/01/31 08:42:39;;;;;;;35.23;20.57;;;7.30;67.80;;;;;;4876642;29;20250;-68
2024/01/31 08:45:10;;;;;;;32.90;20.03;;;7.30;67.40;;;;;;4881523;29;20235;-69
2024/01/31 08:47:39;;;;;;;32.93;20.53;;;7.30;67.30;;;;;;4881079;29;20238;-69
2024/01/31 08:50:11;;;;;;;31.30;19.53;;;7.40;67.40;;;;;;4885905;29;20242;-68
2024/01/31 08:52:39;;;;;;;36.57;20.63;;;7.40;67.30;;;;;;4884397;29;20223;-68
2024/01/31 08:55:09;;;;;;;33.83;20.03;;;7.40;66.80;;;;;;4886528;29;20229;-67
2024/01/31 08:57:38;;;;;;;34.10;21.17;;;7.40;67.20;;;;;;4880013;29;20227;-69
2024/01/31 09:00:08;;;;;;;31.77;20.20;;;7.50;67.70;;;;;;4884530;29;20533;-68
2024/01/31 09:02:37;;;;;;;29.90;19.73;;;7.50;67.20;;;;;;4866431;29;20309;-67
2024/01/31 09:05:07;;;;;;;34.57;20.67;;;7.60;66.80;;;;;;4887000;29;20267;-68
2024/01/31 09:07:46;;;;;;;34.87;20.20;;;7.60;67.20;;;;;;4878794;29;20335;-68
2024/01/31 09:10:15;;;;;;;32.40;20.57;;;7.70;66.80;;;;;;4879386;29;20298;-68
2024/01/31 09:12:44;;;;;;;34.93;21.03;;;7.70;66.60;;;;;;4882564;29;20229;-68
2024/01/31 09:15:13;;;;;;;34.50;21.27;;;7.80;66.50;;;;;;4878563;29;20294;-67
2024/01/31 09:17:46;;;;;;;31.00;19.80;;;7.90;65.90;;;;;;4874494;29;20601;-68
2024/01/31 09:20:17;;;;;;;35.67;21.23;;;7.90;65.10;;;;;;4883656;29;20241;-68
2024/01/31 09:22:47;;;;;;;31.00;19.40;;;8.00;65.40;;;;;;4878568;29;20231;-68
2024/01/31 09:25:16;;;;;;;35.63;20.80;;;8.00;64.30;;;;;;4864145;29;20238;-67
2024/01/31 09:27:45;;;;;;;31.53;19.70;;;8.00;64.40;;;;;;4872109;29;20226;-68
2024/01/31 09:30:14;;;;;;;33.63;20.17;;;8.00;65.00;;;;;;4862978;29;20238;-68
2024/01/31 09:32:42;;;;;;;31.77;20.48;;;7.90;65.10;;;;;;4873141;29;20230;-68
2024/01/31 09:35:11;;;;;;;34.53;20.57;;;8.00;65.70;;;;;;4879136;29;20254;-68
2024/01/31 09:37:40;;;;;;;33.00;20.40;;;8.20;64.80;;;;;;4863183;29;20808;-68
2024/01/31 09:40:15;;;;;;;31.00;20.10;;;8.20;64.30;;;;;;4877231;29;20242;-68
2024/01/31 09:42:45;;;;;;;33.30;19.50;;;8.30;64.10;;;;;;4898116;29;20723;-68
2024/01/31 09:45:15;;;;;;;32.45;20.92;;;8.40;64.30;;;;;;4874814;29;20231;-68
2024/01/31 09:47:46;;;;;;;34.83;20.38;;;8.30;63.90;;;;;;4869528;29;20230;-68
2024/01/31 09:50:18;;;;;;;30.00;19.70;;;8.20;64.60;;;;;;4889999;29;20577;-69
2024/01/31 09:52:51;;;;;;;30.75;19.42;;;8.30;65.30;;;;;;4865746;29;20448;-68
2024/01/31 09:55:23;;;;;;;29.30;19.70;;;8.30;63.70;;;;;;4870150;29;20308;-67
2024/01/31 09:57:55;;;;;;;33.63;19.75;;;8.40;63.70;;;;;;4881784;29;20234;-68
2024/01/31 10:00:24;;;;;;;28.83;18.45;;;8.40;63.40;;;;;;4890588;29;20230;-68
2024/01/31 10:02:53;;;;;;;27.52;18.67;;;8.40;64.20;;;;;;4886881;29;20230;-68
2024/01/31 10:05:21;;;;;;;30.08;19.25;;;8.40;63.60;;;;;;4873084;29;20617;-69
2024/01/31 10:08:01;;;;;;;29.98;19.23;;;8.40;63.50;;;;;;4863589;29;20816;-68
2024/01/31 10:10:32;;;;;;;31.00;19.52;;;8.50;64.10;;;;;;4887702;29;20233;-69
2024/01/31 10:13:03;;;;;;;32.25;19.65;;;8.50;63.10;;;;;;4839573;29;20274;-69
2024/01/31 10:15:32;;;;;;;29.95;19.85;;;8.50;63.50;;;;;;4883218;29;20226;-70
2024/01/31 10:18:01;;;;;;;29.98;19.80;;;8.60;63.10;;;;;;4869655;29;20234;-69
2024/01/31 10:20:31;;;;;;;32.78;21.30;;;8.60;63.10;;;;;;4885374;29;20703;-69
2024/01/31 10:23:03;;;;;;;30.75;19.67;;;8.80;62.60;;;;;;4870364;29;20283;-70
2024/01/31 10:25:33;;;;;;;34.90;20.23;;;8.90;62.00;;;;;;4875241;29;20620;-69
2024/01/31 10:28:04;;;;;;;35.15;19.90;;;8.90;61.90;;;;;;4883112;29;20226;-69
2024/01/31 10:30:35;;;;;;;29.40;19.67;;;9.00;62.10;;;;;;4888811;29;20222;-69
2024/01/31 10:33:05;;;;;;;32.17;19.35;;;8.90;61.40;;;;;;4887619;29;20234;-69
2024/01/31 10:35:34;;;;;;;30.35;19.30;;;8.70;62.70;;;;;;4884223;29;20214;-69
2024/01/31 10:38:23;;;;;;;30.60;18.95;;;8.80;62.30;;;;;;4883015;29;20254;-68
2024/01/31 10:40:56;;;;;;;30.80;19.33;;;9.00;61.90;;;;;;4886890;29;20234;-70
2024/01/31 10:43:26;;;;;;;34.50;19.75;;;8.90;62.00;;;;;;4869724;29;20234;-70
2024/01/31 10:45:55;;;;;;;30.67;19.80;;;9.00;61.10;;;;;;4883772;29;20372;-70
2024/01/31 10:48:24;;;;;;;27.60;18.70;;;9.00;61.00;;;;;;4883732;29;20234;-69
2024/01/31 10:50:55;;;;;;;31.27;18.77;;;8.90;62.80;;;;;;4880693;29;20234;-69
2024/01/31 10:53:26;;;;;;;27.77;18.27;;;9.10;74.80;;;;;;4883134;29;20241;-69
2024/01/31 10:55:57;;;;;;;30.40;19.50;;;9.10;61.70;;;;;;4868967;29;20317;-69
2024/01/31 10:58:29;;;;;;;30.35;19.67;;;9.20;61.70;;;;;;4866986;29;20226;-70
2024/01/31 11:00:57;;;;;;;35.05;19.55;;;9.10;61.20;;;;;;4883105;29;20222;-68
2024/01/31 11:03:26;;;;;;;30.00;18.48;;;9.00;62.10;;;;;;4887581;29;20309;-68
2024/01/31 11:05:55;;;;;;;28.33;19.33;;;8.90;61.90;;;;;;4867727;29;20238;-69
2024/01/31 11:08:26;;;;;;;28.30;18.08;;;8.90;63.20;;;;;;4879876;29;20223;-69
2024/01/31 11:10:57;;;;;;;30.25;18.13;;;9.00;62.50;;;;;;4878810;29;20329;-71
2024/01/31 11:13:25;;;;;;;26.48;17.52;;;9.00;63.40;;;;;;4883740;29;20329;-71
2024/01/31 11:15:54;;;;;;;26.80;17.35;;;9.00;62.30;;;;;;4877771;29;20237;-71
2024/01/31 11:18:26;;;;;;;29.83;17.83;;;9.00;63.00;;;;;;4868701;29;20299;-69
2024/01/31 11:20:57;;;;;;;32.95;18.13;;;8.90;76.20;;;;;;4882106;29;20222;-69
2024/01/31 11:23:30;;;;;;;28.73;18.38;;;8.90;63.40;;;;;;4885985;29;20241;-68
2024/01/31 11:26:02;;;;;;;34.90;18.42;;;8.90;64.30;;;;;;4881140;29;20227;-68
2024/01/31 11:28:31;;;;;;;29.52;17.83;;;8.80;63.60;;;;;;4859499;29;20318;-67
2024/01/31 11:31:00;;;;;;;30.70;19.48;;;9.00;63.20;;;;;;4867461;29;20686;-69
2024/01/31 11:33:28;;;;;;;33.50;18.05;;;8.90;63.50;;;;;;4886236;29;20256;-67
2024/01/31 11:35:57;;;;;;;28.25;17.52;;;8.90;63.00;;;;;;4876514;29;20561;-69
2024/01/31 11:38:26;;;;;;;25.88;17.23;;;8.80;63.80;;;;;;4875794;29;20258;-68
2024/01/31 11:40:55;;;;;;;28.85;18.38;;;8.90;64.10;;;;;;4877768;29;20662;-68
2024/01/31 11:43:25;;;;;;;31.05;19.98;;;8.90;65.00;;;;;;4881140;29;20273;-68
2024/01/31 11:45:54;;;;;;;28.38;18.52;;;8.90;64.40;;;;;;4881971;29;20242;-69
2024/01/31 11:48:23;;;;;;;30.00;18.73;;;8.90;63.60;;;;;;4883956;29;20230;-69
2024/01/31 11:50:53;;;;;;;29.10;19.30;;;8.90;64.10;;;;;;4879803;29;20711;-69
2024/01/31 11:53:22;;;;;;;28.00;17.65;;;9.00;63.40;;;;;;4885147;29;20235;-70
2024/01/31 11:55:52;;;;;;;27.48;17.70;;;9.00;64.30;;;;;;4865083;29;20247;-70
2024/01/31 11:58:20;;;;;;;25.98;17.42;;;9.10;62.90;;;;;;4882292;29;20227;-69
2024/01/31 12:00:50;;;;;;;29.77;17.38;;;9.20;62.30;;;;;;4868295;29;20567;-69
2024/01/31 12:03:20;;;;;;;22.77;15.30;;;9.20;61.70;;;;;;4881293;29;20313;-69
2024/01/31 12:05:57;;;;;;;26.42;16.10;;;9.20;62.20;;;;;;4854923;29;20238;-69
2024/01/31 12:08:27;;;;;;;22.95;14.52;;;9.30;62.00;;;;;;4870990;29;20234;-68
2024/01/31 12:10:56;;;;;;;23.75;15.52;;;9.20;62.40;;;;;;4884213;29;20642;-68
2024/01/31 12:13:25;;;;;;;22.70;14.90;;;9.20;61.20;;;;;;4880418;29;20281;-69
2024/01/31 12:15:56;;;;;;;25.55;16.00;;;9.20;62.30;;;;;;4863736;29;20228;-69
2024/01/31 12:18:25;;;;;;;21.77;15.07;;;9.10;61.50;;;;;;4879087;29;20301;-69
2024/01/31 12:21:01;;;;;;;21.52;15.13;;;9.10;61.80;;;;;;4883363;29;20238;-69
2024/01/31 12:23:29;;;;;;;22.27;15.18;;;9.10;62.10;;;;;;4883430;29;20238;-69
2024/01/31 12:25:59;;;;;;;28.08;15.43;;;9.10;62.00;;;;;;4884523;29;20234;-69
2024/01/31 12:28:28;;;;;;;23.13;15.57;;;9.10;62.10;;;;;;4883425;29;20230;-69
2024/01/31 12:30:58;;;;;;;18.73;13.93;;;9.10;62.90;;;;;;4862684;29;20238;-70
2024/01/31 12:33:27;;;;;;;23.35;14.52;;;9.00;62.40;;;;;;4879980;29;20310;-68
2024/01/31 12:35:57;;;;;;;23.52;15.68;;;9.00;62.60;;;;;;4875428;29;20227;-68
2024/01/31 12:38:26;;;;;;;25.00;14.52;;;9.10;61.70;;;;;;4883925;29;20957;-69
2024/01/31 12:40:54;;;;;;;23.40;14.18;;;9.20;61.50;;;;;;4877754;29;20226;-69
2024/01/31 12:43:24;;;;;;;21.58;14.43;;;9.30;60.80;;;;;;4881304;29;20222;-69
2024/01/31 12:45:57;;;;;;;20.10;13.55;;;9.50;59.80;;;;;;4879827;29;20238;-71
2024/01/31 12:48:29;;;;;;;21.77;14.77;;;9.40;59.90;;;;;;4882812;29;21189;-69